Time;durP1;ratioP1;P1;durP2;ratioP2;P2;SDS_P1;SDS_P2;PMS_P1;PMS_P2;Temp;Humidity;BMP_temperature;BMP_pressure;BME280_temperature;BME280_humidity;BME280_pressure;Samples;Min_cycle;Max_cycle;Signal;HPM_P1;HPM_P2
2022/01/08 00:00:05;;;;;;;2.65;1.45;;;3.10;72.40;;;;;;4974334;28;20277;-77
2022/01/08 00:02:33;;;;;;;1.90;0.93;;;3.10;72.50;;;;;;4987942;28;20197;-77
2022/01/08 00:05:00;;;;;;;2.10;1.30;;;3.00;72.60;;;;;;4975606;28;20197;-78
2022/01/08 00:07:28;;;;;;;2.70;1.35;;;3.00;72.80;;;;;;4987785;28;20228;-76
2022/01/08 00:09:59;;;;;;;2.75;1.65;;;2.90;72.60;;;;;;4989783;28;20581;-79
2022/01/08 00:12:28;;;;;;;2.40;1.85;;;2.90;72.60;;;;;;4981812;28;20565;-76
2022/01/08 00:14:57;;;;;;;2.70;1.60;;;2.80;72.30;;;;;;4973469;28;20553;-77
2022/01/08 00:17:25;;;;;;;1.98;1.30;;;2.80;72.40;;;;;;4976900;28;20353;-77
2022/01/08 00:19:53;;;;;;;2.35;1.38;;;2.70;72.40;;;;;;4972779;28;20320;-77
2022/01/08 00:22:22;;;;;;;2.40;1.50;;;2.60;72.40;;;;;;4972839;28;20205;-77
2022/01/08 00:24:52;;;;;;;2.60;1.42;;;2.60;72.50;;;;;;4972383;28;20193;-77
2022/01/08 00:27:21;;;;;;;3.05;1.58;;;2.50;72.40;;;;;;4980818;28;20691;-76
2022/01/08 00:29:49;;;;;;;3.20;1.50;;;2.40;72.40;;;;;;4988848;28;20204;-77
2022/01/08 00:32:18;;;;;;;5.63;2.95;;;2.30;72.80;;;;;;4979043;28;20236;-79
2022/01/08 00:34:48;;;;;;;4.05;2.55;;;2.10;73.70;;;;;;4990023;28;20200;-76
2022/01/08 00:37:15;;;;;;;4.60;3.38;;;2.00;73.80;;;;;;4989174;28;20197;-77
2022/01/08 00:39:47;;;;;;;5.45;3.08;;;2.00;73.90;;;;;;4976087;28;20604;-78
2022/01/08 00:42:15;;;;;;;3.92;2.40;;;1.90;73.80;;;;;;4987840;28;20232;-77
2022/01/08 00:44:44;;;;;;;6.22;2.80;;;1.80;73.80;;;;;;4989680;28;20235;-78
2022/01/08 00:47:11;;;;;;;4.65;2.15;;;1.80;74.30;;;;;;4989719;28;20220;-78
2022/01/08 00:49:45;;;;;;;3.33;1.90;;;1.70;74.30;;;;;;4989993;28;21221;-77
2022/01/08 00:52:15;;;;;;;2.78;1.45;;;1.70;73.30;;;;;;4989975;28;20292;-82
2022/01/08 00:54:43;;;;;;;3.20;1.77;;;1.50;72.70;;;;;;4991113;28;20208;-77
2022/01/08 00:57:10;;;;;;;2.70;1.40;;;1.40;73.00;;;;;;4989217;28;20216;-77
2022/01/08 00:59:38;;;;;;;4.72;1.73;;;1.40;73.90;;;;;;4973887;28;20193;-77
2022/01/08 01:02:05;;;;;;;2.60;1.65;;;1.30;74.20;;;;;;4991353;28;20284;-78
2022/01/08 01:04:33;;;;;;;3.70;2.28;;;1.30;74.50;;;;;;4990891;28;20192;-77
2022/01/08 01:07:02;;;;;;;8.43;3.53;;;1.30;74.60;;;;;;4991016;28;20199;-77
2022/01/08 01:09:29;;;;;;;3.72;2.38;;;1.20;74.70;;;;;;4991116;28;20209;-76
2022/01/08 01:11:57;;;;;;;3.00;1.60;;;1.10;75.40;;;;;;4990929;28;20661;-77
2022/01/08 01:14:26;;;;;;;3.97;1.98;;;1.00;76.00;;;;;;4980440;28;20193;-77
2022/01/08 01:16:55;;;;;;;2.83;1.50;;;0.90;77.10;;;;;;4991079;28;20216;-76
2022/01/08 01:19:23;;;;;;;3.20;1.60;;;0.90;77.10;;;;;;4990689;28;20224;-76
2022/01/08 01:21:52;;;;;;;3.25;1.75;;;0.80;77.30;;;;;;4991135;28;20212;-76
2022/01/08 01:24:48;;;;;;;2.70;1.67;;;0.80;77.50;;;;;;4990759;28;20199;-75
2022/01/08 01:48:23;;;;;;;3.10;1.73;;;0.30;80.50;;;;;;4993911;28;20232;-77
2022/01/08 01:51:16;;;;;;;3.13;1.70;;;0.30;80.50;;;;;;4975324;28;20193;-77
2022/01/08 01:54:20;;;;;;;3.22;1.80;;;0.20;80.70;;;;;;4975350;28;20197;-76
2022/01/08 01:57:16;;;;;;;5.32;2.00;;;0.20;80.60;;;;;;4981342;28;20188;-79
2022/01/08 02:00:17;;;;;;;7.13;3.60;;;0.10;81.10;;;;;;4994409;28;20490;-77
2022/01/08 02:03:01;;;;;;;5.95;3.08;;;0.10;81.70;;;;;;4992937;28;20220;-77
2022/01/08 02:06:06;;;;;;;6.55;2.97;;;0.10;82.40;;;;;;4994150;28;20192;-76
2022/01/08 02:08:42;;;;;;;5.38;3.33;;;0.10;82.60;;;;;;4972527;28;20229;-79
2022/01/08 02:11:28;;;;;;;4.05;2.75;;;0.10;82.70;;;;;;4975012;28;20287;-77
2022/01/08 02:14:15;;;;;;;6.18;4.50;;;0.10;82.80;;;;;;4993768;28;20674;-78
2022/01/08 02:16:49;;;;;;;7.25;3.42;;;0.10;82.60;;;;;;4959195;28;20536;-78
2022/01/08 02:19:44;;;;;;;5.13;3.15;;;0.10;82.50;;;;;;4993530;28;20201;-78
2022/01/08 02:22:47;;;;;;;6.03;2.78;;;0.10;82.30;;;;;;4993454;28;20200;-77
2022/01/08 02:25:41;;;;;;;3.28;2.20;;;0.10;81.60;;;;;;4993115;28;20211;-78
2022/01/08 02:28:09;;;;;;;3.22;2.03;;;0.10;80.30;;;;;;4993395;28;20220;-77
2022/01/08 02:30:43;;;;;;;3.97;2.40;;;0.10;79.40;;;;;;4993358;28;20197;-78
2022/01/08 02:33:17;;;;;;;5.72;3.30;;;0.00;79.90;;;;;;4993476;28;20227;-78
2022/01/08 02:35:48;;;;;;;7.35;2.35;;;0.00;80.50;;;;;;4992918;28;20193;-77
2022/01/08 02:38:22;;;;;;;3.50;2.65;;;0.00;80.70;;;;;;4993987;28;20211;-77
2022/01/08 02:40:57;;;;;;;5.05;2.70;;;0.00;81.10;;;;;;4992910;28;20244;-76
2022/01/08 02:43:33;;;;;;;4.25;2.88;;;-0.10;80.70;;;;;;4993186;28;20197;-79
2022/01/08 02:46:02;;;;;;;4.22;2.15;;;-0.10;80.90;;;;;;4992758;28;20192;-77
2022/01/08 02:48:29;;;;;;;4.80;2.60;;;-0.10;81.00;;;;;;4991934;28;20216;-77
2022/01/08 02:50:57;;;;;;;3.88;2.63;;;-0.10;80.50;;;;;;4992500;28;20643;-78
2022/01/08 02:53:27;;;;;;;3.42;2.30;;;-0.10;80.30;;;;;;4992745;28;20201;-78
2022/01/08 02:55:58;;;;;;;2.88;2.03;;;-0.20;80.30;;;;;;4993075;28;20284;-77
2022/01/08 02:58:28;;;;;;;3.95;2.17;;;-0.30;80.90;;;;;;4992593;28;20308;-78
2022/01/08 03:00:56;;;;;;;6.65;2.55;;;-0.20;80.70;;;;;;4992987;28;20192;-78
2022/01/08 03:03:25;;;;;;;6.07;2.40;;;-0.20;80.00;;;;;;4992673;28;20205;-78
2022/01/08 03:06:12;;;;;;;4.05;2.40;;;-0.20;79.10;;;;;;4992558;28;20534;-78
2022/01/08 03:08:55;;;;;;;4.53;2.53;;;-0.20;78.10;;;;;;4992335;28;20224;-78
2022/01/08 03:11:41;;;;;;;3.03;2.03;;;-0.20;76.50;;;;;;4992646;28;20189;-76
2022/01/08 03:14:08;;;;;;;4.43;3.15;;;-0.30;75.60;;;;;;4992085;28;20228;-81
2022/01/08 03:16:48;;;;;;;5.05;2.97;;;-0.30;75.20;;;;;;4972964;28;20201;-76
2022/01/08 03:19:16;;;;;;;4.90;1.88;;;-0.40;74.20;;;;;;4989998;28;20193;-76
2022/01/08 03:21:46;;;;;;;6.00;3.08;;;-0.40;74.60;;;;;;4992159;28;20307;-77
2022/01/08 03:24:17;;;;;;;4.88;2.95;;;-0.50;74.90;;;;;;4991225;28;20193;-77
2022/01/08 03:26:45;;;;;;;3.60;2.05;;;-0.50;75.20;;;;;;4992236;28;20818;-77
2022/01/08 03:29:13;;;;;;;5.03;2.30;;;-0.50;75.40;;;;;;4991561;28;20225;-76
2022/01/08 03:31:40;;;;;;;4.15;2.20;;;-0.60;74.60;;;;;;4991664;28;20201;-76
2022/01/08 03:34:08;;;;;;;5.10;2.88;;;-0.70;73.50;;;;;;4991877;28;20189;-78
2022/01/08 03:36:35;;;;;;;4.53;2.83;;;-0.70;74.90;;;;;;4991328;28;20315;-77
2022/01/08 03:39:04;;;;;;;5.13;2.20;;;-0.80;75.00;;;;;;4991041;28;20196;-77
2022/01/08 03:41:33;;;;;;;4.50;2.40;;;-0.90;74.70;;;;;;4991492;28;20638;-76
2022/01/08 03:44:01;;;;;;;9.90;2.70;;;-0.90;75.30;;;;;;4991068;28;20196;-77
2022/01/08 03:46:33;;;;;;;5.65;3.00;;;-0.90;76.00;;;;;;4991733;28;20205;-76
2022/01/08 03:49:23;;;;;;;4.18;2.10;;;-0.80;76.60;;;;;;4991115;28;20235;-77
2022/01/08 03:51:57;;;;;;;3.97;2.03;;;-0.80;76.20;;;;;;4980783;28;20275;-78
2022/01/08 03:54:25;;;;;;;3.17;1.88;;;-0.80;76.50;;;;;;4991105;28;20192;-77
2022/01/08 03:56:54;;;;;;;9.05;2.00;;;-0.90;76.00;;;;;;4991851;28;20295;-77
2022/01/08 03:59:22;;;;;;;4.55;2.42;;;-0.90;77.30;;;;;;4990968;28;20200;-78
2022/01/08 04:01:49;;;;;;;3.20;1.75;;;-1.00;79.20;;;;;;4991678;28;20559;-77
2022/01/08 04:04:17;;;;;;;3.35;1.50;;;-1.00;80.30;;;;;;4991232;28;20671;-78
2022/01/08 04:06:45;;;;;;;2.72;1.40;;;-0.90;81.50;;;;;;4991744;28;20199;-77
2022/01/08 04:09:15;;;;;;;3.65;1.55;;;-0.90;82.00;;;;;;4991136;28;20217;-77
2022/01/08 04:11:42;;;;;;;5.47;2.13;;;-0.90;82.00;;;;;;4991572;28;20203;-78
2022/01/08 04:14:13;;;;;;;2.65;1.70;;;-0.80;82.20;;;;;;4991198;28;20254;-78
2022/01/08 04:16:45;;;;;;;3.20;1.50;;;-0.70;81.20;;;;;;4991055;28;20192;-78
2022/01/08 04:19:17;;;;;;;3.13;1.98;;;-0.60;80.80;;;;;;4991223;28;20189;-77
2022/01/08 04:22:09;;;;;;;3.50;2.30;;;-0.50;80.30;;;;;;4991096;28;20664;-78
2022/01/08 04:24:42;;;;;;;3.85;1.95;;;-0.50;80.00;;;;;;4991867;28;20211;-78
2022/01/08 04:27:10;;;;;;;4.70;2.15;;;-0.40;79.70;;;;;;4990746;28;20563;-77
2022/01/08 04:29:39;;;;;;;4.22;1.67;;;-0.30;79.80;;;;;;4991414;28;20220;-78
2022/01/08 04:32:11;;;;;;;3.50;1.67;;;-0.20;79.90;;;;;;4991012;28;20308;-77
2022/01/08 04:34:39;;;;;;;5.25;2.17;;;-0.10;80.30;;;;;;4991670;28;20193;-80
2022/01/08 04:37:06;;;;;;;3.40;1.98;;;-0.10;80.80;;;;;;4991266;28;20208;-78
2022/01/08 04:39:34;;;;;;;2.47;1.40;;;0.10;80.50;;;;;;4991174;28;20185;-78
2022/01/08 04:42:07;;;;;;;2.67;1.45;;;0.20;80.10;;;;;;4991502;28;20268;-78
2022/01/08 04:44:35;;;;;;;3.08;1.70;;;0.20;80.50;;;;;;4991819;28;20284;-78
2022/01/08 04:47:10;;;;;;;3.58;2.20;;;0.20;79.80;;;;;;4991345;28;20191;-77
2022/01/08 04:49:38;;;;;;;3.60;1.75;;;0.20;79.30;;;;;;4991449;28;20266;-77
2022/01/08 04:52:07;;;;;;;4.45;2.15;;;0.20;79.30;;;;;;4991633;28;20243;-77
2022/01/08 04:54:38;;;;;;;3.28;1.67;;;0.30;79.90;;;;;;4993025;28;20639;-77
2022/01/08 04:57:05;;;;;;;3.22;1.63;;;0.40;79.80;;;;;;4992554;28;20588;-77
2022/01/08 04:59:33;;;;;;;2.75;1.45;;;0.50;79.70;;;;;;4992996;28;20192;-77
2022/01/08 05:02:01;;;;;;;2.60;1.60;;;0.50;78.80;;;;;;4992526;28;20217;-77
2022/01/08 05:04:30;;;;;;;4.78;1.60;;;0.60;79.10;;;;;;4992917;28;20196;-77
2022/01/08 05:06:58;;;;;;;3.08;1.63;;;0.60;78.80;;;;;;4991934;28;20193;-78
2022/01/08 05:09:25;;;;;;;2.45;1.05;;;0.60;78.70;;;;;;4992721;28;20236;-77
2022/01/08 05:11:53;;;;;;;2.05;1.02;;;0.60;78.80;;;;;;4994388;28;20240;-77
2022/01/08 05:14:21;;;;;;;4.18;1.50;;;0.70;78.20;;;;;;4996080;28;20567;-76
2022/01/08 05:16:55;;;;;;;2.20;1.30;;;0.70;77.90;;;;;;4996554;28;20275;-76
2022/01/08 05:19:36;;;;;;;2.33;0.95;;;0.70;78.10;;;;;;4996288;28;20196;-77
2022/01/08 05:22:07;;;;;;;1.77;0.80;;;0.70;77.50;;;;;;4996221;28;20736;-77
2022/01/08 05:24:37;;;;;;;2.78;1.42;;;0.70;77.40;;;;;;4996463;28;20276;-77
2022/01/08 05:27:06;;;;;;;3.30;1.60;;;0.70;77.50;;;;;;4995810;28;20224;-78
2022/01/08 05:29:35;;;;;;;4.63;1.55;;;0.80;77.50;;;;;;4996228;28;20227;-77
2022/01/08 05:32:03;;;;;;;2.88;1.30;;;0.90;77.70;;;;;;4996342;28;20595;-76
2022/01/08 05:34:31;;;;;;;3.53;1.35;;;0.90;77.40;;;;;;4996503;28;20224;-77
2022/01/08 05:36:58;;;;;;;1.50;0.90;;;0.90;77.50;;;;;;4995645;28;20555;-78
2022/01/08 05:39:27;;;;;;;1.85;0.95;;;1.00;77.70;;;;;;4996222;28;20193;-77
2022/01/08 05:41:55;;;;;;;2.20;1.10;;;1.10;76.40;;;;;;4995819;28;20193;-78
2022/01/08 05:44:23;;;;;;;2.90;0.93;;;1.10;76.10;;;;;;4996361;28;20610;-77
2022/01/08 05:46:51;;;;;;;2.20;1.20;;;1.10;76.60;;;;;;4995378;28;20190;-77
2022/01/08 05:49:23;;;;;;;5.00;1.90;;;1.20;76.90;;;;;;4996075;28;20220;-77
2022/01/08 05:51:53;;;;;;;4.07;2.20;;;1.20;76.80;;;;;;4995840;28;20203;-77
2022/01/08 05:54:20;;;;;;;2.13;1.00;;;1.20;76.70;;;;;;4995693;28;20188;-77
2022/01/08 05:56:51;;;;;;;2.28;1.45;;;1.20;75.60;;;;;;4996019;28;20193;-77
2022/01/08 05:59:21;;;;;;;3.53;1.30;;;1.20;75.00;;;;;;4995387;28;20193;-77
2022/01/08 06:01:52;;;;;;;1.98;1.27;;;1.20;75.30;;;;;;4995978;28;20292;-77
2022/01/08 06:04:20;;;;;;;2.10;1.10;;;1.20;75.10;;;;;;4995436;28;20563;-76
2022/01/08 06:06:53;;;;;;;2.40;1.23;;;1.20;74.70;;;;;;4995736;28;20287;-77
2022/01/08 06:09:21;;;;;;;3.00;1.50;;;1.10;75.20;;;;;;4995083;28;20224;-77
2022/01/08 06:11:50;;;;;;;2.90;1.50;;;1.10;75.50;;;;;;4995799;28;20361;-77
2022/01/08 06:14:17;;;;;;;3.88;1.70;;;1.20;75.40;;;;;;4995090;28;20239;-78
2022/01/08 06:16:45;;;;;;;3.78;1.90;;;1.10;75.10;;;;;;4992263;28;20196;-77
2022/01/08 06:19:14;;;;;;;3.55;1.60;;;1.10;75.30;;;;;;4995682;28;20204;-77
2022/01/08 06:21:42;;;;;;;3.05;1.40;;;1.20;75.60;;;;;;4975502;28;20229;-77
2022/01/08 06:24:09;;;;;;;3.35;1.70;;;1.20;75.20;;;;;;4975013;28;20198;-77
2022/01/08 06:26:37;;;;;;;4.50;1.83;;;1.20;74.40;;;;;;4975866;28;20236;-77
2022/01/08 06:29:07;;;;;;;4.60;1.23;;;1.20;74.90;;;;;;4975695;28;20225;-77
2022/01/08 06:31:35;;;;;;;2.35;1.25;;;1.30;74.70;;;;;;4976117;28;20201;-76
2022/01/08 06:34:03;;;;;;;8.82;2.80;;;1.30;74.30;;;;;;4975405;28;20196;-77
2022/01/08 06:36:30;;;;;;;6.30;3.30;;;1.30;73.20;;;;;;4975598;28;20194;-77
2022/01/08 06:38:58;;;;;;;3.45;2.38;;;1.30;73.70;;;;;;4975416;28;20205;-77
2022/01/08 06:41:29;;;;;;;2.72;1.73;;;1.20;74.10;;;;;;4975353;28;20667;-77
2022/01/08 06:43:57;;;;;;;2.35;1.02;;;1.20;74.50;;;;;;4975625;28;20194;-77
2022/01/08 06:46:26;;;;;;;4.30;1.98;;;1.30;74.80;;;;;;4975544;28;20678;-77
2022/01/08 06:48:54;;;;;;;3.83;1.92;;;1.30;73.40;;;;;;4975392;28;20560;-76
2022/01/08 06:51:28;;;;;;;2.95;1.27;;;1.40;72.60;;;;;;4975569;28;20645;-76
2022/01/08 06:53:56;;;;;;;5.80;2.58;;;1.40;71.80;;;;;;4975099;28;20667;-76
2022/01/08 06:56:23;;;;;;;8.50;1.90;;;1.50;72.40;;;;;;4975379;28;20193;-77
2022/01/08 06:58:51;;;;;;;7.78;4.00;;;1.50;72.60;;;;;;4974940;28;20619;-77
2022/01/08 07:01:18;;;;;;;6.05;4.00;;;1.60;72.20;;;;;;4975537;28;20231;-77
2022/01/08 07:03:48;;;;;;;2.20;1.55;;;1.60;71.50;;;;;;4975117;28;20206;-77
2022/01/08 07:06:15;;;;;;;4.22;2.58;;;1.60;72.00;;;;;;4974652;28;20201;-77
2022/01/08 07:08:45;;;;;;;3.75;2.20;;;1.70;71.30;;;;;;4975051;28;20304;-77
2022/01/08 07:11:18;;;;;;;3.13;1.63;;;1.70;71.50;;;;;;4975092;28;20567;-77
2022/01/08 07:13:46;;;;;;;3.03;2.15;;;1.60;71.90;;;;;;4974825;28;20198;-77
2022/01/08 07:16:14;;;;;;;4.10;1.67;;;1.60;72.40;;;;;;4974960;28;20382;-77
2022/01/08 07:18:42;;;;;;;2.80;1.60;;;1.60;73.00;;;;;;4975079;28;20659;-77
2022/01/08 07:21:11;;;;;;;3.78;1.80;;;1.70;73.40;;;;;;4988215;28;20961;-77
2022/01/08 07:23:39;;;;;;;3.15;2.10;;;1.80;73.60;;;;;;4975092;28;20296;-77
2022/01/08 07:26:06;;;;;;;2.05;1.05;;;1.90;74.30;;;;;;4974780;28;20284;-77
2022/01/08 07:28:35;;;;;;;3.08;1.65;;;2.00;74.70;;;;;;4988804;28;20217;-77
2022/01/08 07:31:03;;;;;;;1.70;1.00;;;2.00;75.10;;;;;;4974827;28;20224;-77
2022/01/08 07:33:30;;;;;;;1.92;0.82;;;2.20;75.40;;;;;;4993005;28;20586;-78
2022/01/08 07:35:58;;;;;;;3.22;2.20;;;2.30;75.90;;;;;;4994103;28;20232;-77
2022/01/08 07:38:26;;;;;;;1.60;0.73;;;2.40;75.90;;;;;;4976115;28;20192;-78
2022/01/08 07:40:54;;;;;;;2.47;1.25;;;2.50;75.80;;;;;;4981115;28;20185;-77
2022/01/08 07:43:26;;;;;;;4.32;1.45;;;2.70;76.10;;;;;;4994284;28;20197;-76
2022/01/08 07:45:54;;;;;;;3.63;1.50;;;2.80;76.10;;;;;;4987723;28;20241;-77
2022/01/08 07:48:27;;;;;;;4.38;2.03;;;2.80;75.90;;;;;;4974832;28;20198;-77
2022/01/08 07:50:55;;;;;;;3.80;1.25;;;2.90;76.20;;;;;;4979639;28;20216;-77
2022/01/08 07:53:23;;;;;;;3.10;1.50;;;2.90;76.30;;;;;;4981437;28;20197;-77
2022/01/08 07:55:52;;;;;;;2.70;1.08;;;3.00;76.40;;;;;;4978525;28;20220;-77
2022/01/08 07:58:22;;;;;;;2.90;1.55;;;3.00;77.00;;;;;;4994059;28;20207;-77
2022/01/08 08:00:49;;;;;;;1.67;0.73;;;3.10;77.50;;;;;;4974308;28;20193;-78
2022/01/08 08:03:17;;;;;;;2.45;0.77;;;3.20;77.60;;;;;;4969360;28;20198;-78
2022/01/08 08:05:48;;;;;;;1.85;0.95;;;3.40;77.70;;;;;;4954577;28;20204;-78
2022/01/08 08:08:17;;;;;;;2.13;1.30;;;3.50;77.50;;;;;;4967493;28;20305;-78
2022/01/08 08:10:50;;;;;;;2.00;0.80;;;3.50;77.20;;;;;;4957714;28;22176;-78
2022/01/08 08:13:22;;;;;;;1.80;0.85;;;3.50;76.60;;;;;;4958124;28;20197;-78
2022/01/08 08:15:53;;;;;;;1.60;0.60;;;3.40;76.60;;;;;;4954546;28;20201;-76
2022/01/08 08:18:20;;;;;;;1.55;0.65;;;3.40;76.90;;;;;;4957890;28;20198;-77
2022/01/08 08:20:51;;;;;;;1.70;0.70;;;3.30;78.90;;;;;;4967295;28;20229;-77
2022/01/08 08:23:18;;;;;;;1.70;0.60;;;3.40;80.20;;;;;;4977624;28;20189;-77
2022/01/08 08:25:46;;;;;;;1.50;0.80;;;3.40;81.10;;;;;;4973767;28;20676;-77
2022/01/08 08:28:16;;;;;;;2.13;0.80;;;3.40;81.80;;;;;;4977137;28;20213;-78
2022/01/08 08:30:45;;;;;;;1.63;0.70;;;3.50;82.00;;;;;;4973254;28;20225;-77
2022/01/08 08:33:17;;;;;;;1.80;0.80;;;3.50;82.40;;;;;;4974896;28;20683;-78
2022/01/08 08:35:47;;;;;;;1.50;0.65;;;3.50;82.80;;;;;;4973449;28;20194;-77
2022/01/08 08:38:17;;;;;;;1.70;0.70;;;3.40;83.40;;;;;;4975590;28;20228;-78
2022/01/08 08:40:47;;;;;;;1.60;0.65;;;3.40;83.70;;;;;;4973273;28;20193;-78
2022/01/08 08:43:17;;;;;;;2.08;0.70;;;3.40;84.10;;;;;;4976173;28;20196;-79
2022/01/08 08:45:46;;;;;;;2.58;1.20;;;3.30;84.70;;;;;;4974485;28;20277;-77
2022/01/08 08:48:15;;;;;;;2.30;0.95;;;3.30;85.70;;;;;;4977312;28;20644;-77
2022/01/08 08:50:48;;;;;;;1.65;0.80;;;3.40;86.50;;;;;;4973187;28;20755;-77
2022/01/08 08:53:16;;;;;;;1.80;0.70;;;3.40;86.20;;;;;;4977282;28;20621;-77
2022/01/08 08:55:43;;;;;;;2.00;1.27;;;3.50;85.60;;;;;;4975798;28;20586;-77
2022/01/08 08:58:11;;;;;;;3.45;0.95;;;3.60;84.70;;;;;;4974033;28;20659;-77
2022/01/08 09:00:49;;;;;;;1.92;0.90;;;3.70;83.60;;;;;;4989168;28;20196;-77
2022/01/08 09:03:17;;;;;;;2.00;0.82;;;3.80;82.40;;;;;;4977169;28;20276;-77
2022/01/08 09:05:50;;;;;;;1.40;0.60;;;3.90;81.50;;;;;;4974432;28;20197;-77
2022/01/08 09:08:18;;;;;;;1.63;0.82;;;4.00;81.00;;;;;;4973397;28;20197;-77
2022/01/08 09:10:46;;;;;;;2.55;1.10;;;4.10;79.50;;;;;;4974439;28;20626;-76
2022/01/08 09:13:16;;;;;;;2.00;0.70;;;4.20;79.40;;;;;;4974996;28;20200;-75
2022/01/08 09:15:43;;;;;;;2.25;1.52;;;4.40;78.30;;;;;;4990171;28;20276;-77
2022/01/08 09:18:12;;;;;;;5.97;3.15;;;4.50;77.30;;;;;;4991119;28;20196;-75
2022/01/08 09:20:40;;;;;;;114.20;44.00;;;4.70;76.20;;;;;;4990893;28;20260;-78
2022/01/08 09:23:08;;;;;;;32.03;13.88;;;4.90;74.90;;;;;;4973026;28;20689;-76
2022/01/08 09:25:36;;;;;;;13.93;6.65;;;5.00;72.90;;;;;;4976395;28;20188;-76
2022/01/08 09:28:03;;;;;;;11.15;6.72;;;5.30;72.50;;;;;;4984191;28;20216;-76
2022/01/08 09:30:33;;;;;;;58.00;21.52;;;5.80;71.40;;;;;;4990743;28;20225;-77
2022/01/08 09:33:00;;;;;;;34.30;12.80;;;6.40;69.20;;;;;;4989461;28;20195;-76
2022/01/08 09:35:38;;;;;;;27.55;13.18;;;6.70;66.30;;;;;;4981790;28;20211;-75
2022/01/08 09:38:09;;;;;;;15.48;8.75;;;6.90;63.50;;;;;;4987085;28;20193;-79
2022/01/08 09:40:36;;;;;;;13.82;10.15;;;7.00;61.50;;;;;;4989187;28;20755;-77
2022/01/08 09:43:04;;;;;;;4.80;3.53;;;7.10;60.50;;;;;;4978258;28;20185;-78
2022/01/08 09:45:32;;;;;;;2.72;1.38;;;7.10;59.20;;;;;;4990575;28;20189;-76
2022/01/08 09:47:59;;;;;;;2.70;1.90;;;7.10;59.10;;;;;;4991281;28;20220;-77
2022/01/08 09:50:27;;;;;;;3.22;2.75;;;7.00;59.40;;;;;;4991250;28;20216;-76
2022/01/08 09:52:58;;;;;;;5.15;2.47;;;6.80;59.00;;;;;;4991196;28;20196;-77
2022/01/08 09:55:26;;;;;;;2.03;1.17;;;6.60;59.50;;;;;;4973384;28;20198;-76
2022/01/08 09:57:54;;;;;;;1.60;0.95;;;6.30;60.50;;;;;;4975075;28;20196;-78
2022/01/08 10:00:22;;;;;;;2.90;0.85;;;6.10;62.40;;;;;;4976691;28;20252;-77
2022/01/08 10:02:50;;;;;;;1.50;0.70;;;5.70;64.90;;;;;;4978598;28;20663;-76
2022/01/08 10:05:23;;;;;;;1.70;0.80;;;5.20;68.00;;;;;;4991892;28;20212;-75
2022/01/08 10:08:02;;;;;;;1.50;0.70;;;4.90;67.70;;;;;;4975415;28;20256;-75
2022/01/08 10:10:29;;;;;;;3.85;1.00;;;4.70;68.90;;;;;;4988888;28;20765;-75
2022/01/08 10:13:00;;;;;;;4.25;1.70;;;4.50;71.40;;;;;;4993201;28;20216;-75
2022/01/08 10:18:22;;;;;;;2.60;1.70;;;4.20;73.30;;;;;;4988614;28;20291;-75
2022/01/08 10:20:55;;;;;;;5.32;3.55;;;4.20;73.50;;;;;;4991759;28;20233;-75
2022/01/08 10:23:25;;;;;;;3.85;2.30;;;4.40;73.20;;;;;;4980963;28;20219;-76
2022/01/08 10:26:00;;;;;;;5.65;3.63;;;4.70;72.60;;;;;;4975215;28;20197;-77
2022/01/08 10:28:41;;;;;;;12.00;7.82;;;5.00;72.00;;;;;;4974723;28;20197;-76
2022/01/08 10:31:10;;;;;;;7.95;5.75;;;5.30;71.50;;;;;;4977255;28;20228;-75
2022/01/08 10:33:37;;;;;;;8.35;5.32;;;5.60;69.50;;;;;;4985141;28;20196;-75
2022/01/08 10:36:05;;;;;;;7.05;3.40;;;5.70;68.20;;;;;;4992615;28;20211;-75
2022/01/08 10:38:34;;;;;;;10.27;7.05;;;5.70;67.00;;;;;;4992080;28;20243;-75
2022/01/08 10:41:03;;;;;;;23.20;14.55;;;5.70;66.90;;;;;;4979479;28;20548;-77
2022/01/08 10:43:33;;;;;;;14.57;8.48;;;5.90;67.50;;;;;;4979352;28;20287;-75
2022/01/08 10:46:11;;;;;;;11.93;9.25;;;6.00;66.20;;;;;;4974014;28;20751;-75
2022/01/08 10:48:39;;;;;;;5.50;4.90;;;6.10;65.40;;;;;;4988527;28;20196;-75
2022/01/08 10:51:18;;;;;;;3.45;2.08;;;6.00;64.00;;;;;;4987901;28;20221;-75
2022/01/08 10:54:05;;;;;;;2.38;1.45;;;5.80;64.00;;;;;;4974870;28;20284;-75
2022/01/08 10:56:34;;;;;;;2.95;1.45;;;5.70;62.60;;;;;;4990997;28;20221;-75
2022/01/08 10:59:13;;;;;;;3.55;1.45;;;5.70;63.90;;;;;;4991203;28;20240;-76
2022/01/08 11:01:48;;;;;;;2.85;1.38;;;5.80;62.60;;;;;;4984242;28;20189;-75
2022/01/08 11:04:16;;;;;;;2.15;1.40;;;5.90;62.00;;;;;;4973959;28;20207;-76
2022/01/08 11:06:51;;;;;;;2.55;1.80;;;6.20;62.40;;;;;;4973211;28;20201;-76
2022/01/08 11:09:20;;;;;;;2.00;1.20;;;7.30;62.40;;;;;;4987574;28;20227;-76
2022/01/08 11:11:49;;;;;;;7.03;1.95;;;8.20;58.10;;;;;;4983022;28;20217;-77
2022/01/08 11:14:44;;;;;;;5.20;1.60;;;9.10;55.60;;;;;;4973701;28;20201;-78
2022/01/08 11:17:15;;;;;;;4.63;1.80;;;9.80;52.90;;;;;;4984460;28;20189;-74
2022/01/08 11:19:45;;;;;;;4.10;2.17;;;9.80;49.90;;;;;;4982790;28;20283;-73
2022/01/08 11:22:14;;;;;;;3.88;2.33;;;9.70;49.80;;;;;;4990718;28;20200;-74
2022/01/08 11:24:51;;;;;;;3.08;1.15;;;9.70;48.90;;;;;;4991305;28;20197;-74
2022/01/08 11:27:23;;;;;;;2.05;1.35;;;9.90;49.00;;;;;;4990587;28;20204;-74
2022/01/08 11:30:05;;;;;;;4.65;2.45;;;9.70;47.60;;;;;;4990710;28;20248;-74
2022/01/08 11:32:35;;;;;;;1.90;1.10;;;9.50;47.60;;;;;;4991310;28;20204;-74
2022/01/08 11:35:04;;;;;;;2.00;1.10;;;9.50;48.10;;;;;;4989768;28;20192;-74
2022/01/08 11:37:31;;;;;;;7.35;4.50;;;9.50;48.10;;;;;;4990013;28;20189;-74
2022/01/08 11:40:03;;;;;;;2.00;0.80;;;9.40;47.50;;;;;;4991115;28;20200;-74
2022/01/08 11:42:33;;;;;;;1.88;1.00;;;9.20;46.00;;;;;;4990102;28;20671;-74
2022/01/08 11:45:01;;;;;;;2.03;1.00;;;9.10;47.70;;;;;;4991271;28;20197;-74
2022/01/08 11:47:30;;;;;;;2.15;1.10;;;9.40;46.90;;;;;;4983837;28;20193;-74
2022/01/08 11:50:00;;;;;;;1.98;0.98;;;9.10;45.80;;;;;;4972870;28;20233;-74
2022/01/08 11:52:28;;;;;;;2.13;1.00;;;8.70;46.40;;;;;;4977593;28;20196;-79
2022/01/08 11:54:56;;;;;;;13.52;8.00;;;8.40;47.40;;;;;;4984813;28;20197;-74
2022/01/08 11:57:26;;;;;;;3.35;1.30;;;8.20;48.50;;;;;;4990851;28;20709;-74
2022/01/08 12:00:02;;;;;;;14.63;8.73;;;8.00;49.00;;;;;;4976844;28;20268;-75
2022/01/08 12:02:35;;;;;;;15.35;8.60;;;8.00;49.30;;;;;;4972854;28;20193;-74
2022/01/08 12:05:04;;;;;;;12.25;7.70;;;7.90;49.40;;;;;;4972716;28;20196;-74
2022/01/08 12:07:35;;;;;;;18.70;11.15;;;7.80;49.40;;;;;;4972592;28;20974;-74
2022/01/08 12:10:23;;;;;;;27.10;16.90;;;7.70;49.40;;;;;;4973992;28;20727;-75
2022/01/08 12:13:00;;;;;;;4.65;3.50;;;7.60;49.60;;;;;;4988630;28;20215;-74
2022/01/08 12:15:48;;;;;;;11.55;8.05;;;7.40;49.60;;;;;;4983331;28;20545;-74
2022/01/08 12:18:20;;;;;;;15.75;9.98;;;7.20;49.60;;;;;;4989390;28;20192;-75
2022/01/08 12:20:50;;;;;;;9.85;3.80;;;7.00;50.00;;;;;;4988887;28;20224;-76
2022/01/08 12:23:39;;;;;;;5.72;3.28;;;6.80;50.30;;;;;;4990381;28;20197;-75
2022/01/08 12:26:25;;;;;;;2.63;1.23;;;6.50;50.70;;;;;;4984134;28;20290;-77
2022/01/08 12:28:57;;;;;;;3.95;2.60;;;6.30;51.20;;;;;;4982683;28;20205;-76
2022/01/08 12:31:41;;;;;;;18.25;11.18;;;6.10;51.80;;;;;;4984428;28;20319;-75
2022/01/08 12:34:46;;;;;;;30.15;15.85;;;5.90;52.20;;;;;;4986696;28;20201;-77
2022/01/08 12:37:14;;;;;;;16.25;9.85;;;5.80;52.90;;;;;;4943975;29;20201;-76
2022/01/08 12:39:57;;;;;;;44.25;27.45;;;5.80;53.30;;;;;;4979852;28;20247;-76
2022/01/08 12:42:42;;;;;;;36.15;17.17;;;5.80;53.60;;;;;;4988230;28;20203;-76
2022/01/08 12:45:18;;;;;;;162.95;65.13;;;5.80;54.10;;;;;;4987568;28;20711;-76
2022/01/08 12:47:51;;;;;;;65.13;30.60;;;5.80;54.40;;;;;;4981193;28;20960;-76
2022/01/08 12:50:29;;;;;;;57.70;25.08;;;5.80;54.60;;;;;;4982952;28;20201;-76
2022/01/08 12:53:30;;;;;;;76.82;36.45;;;5.80;54.00;;;;;;4985950;28;20605;-75
2022/01/08 12:56:17;;;;;;;21.85;9.48;;;5.70;54.00;;;;;;4979280;28;20244;-75
2022/01/08 12:58:51;;;;;;;53.85;27.20;;;5.60;54.30;;;;;;4985757;28;20193;-76
2022/01/08 13:01:25;;;;;;;39.28;17.73;;;5.60;54.70;;;;;;4971718;28;20639;-75
2022/01/08 13:03:56;;;;;;;29.73;13.48;;;5.90;55.10;;;;;;4989310;28;20671;-76
2022/01/08 13:06:34;;;;;;;9.35;2.67;;;6.00;55.30;;;;;;4989410;28;20207;-75
2022/01/08 13:09:02;;;;;;;2.40;1.60;;;6.60;55.80;;;;;;4985598;28;20205;-76
2022/01/08 13:11:32;;;;;;;3.55;1.20;;;7.10;54.50;;;;;;4981321;28;20328;-77
2022/01/08 13:14:05;;;;;;;2.45;1.60;;;7.60;53.10;;;;;;4988796;28;20193;-77
2022/01/08 13:16:37;;;;;;;8.05;2.10;;;8.10;52.40;;;;;;4972843;28;20198;-77
2022/01/08 13:19:07;;;;;;;3.17;1.20;;;8.40;50.90;;;;;;4986677;28;20193;-76
2022/01/08 13:21:36;;;;;;;3.22;1.45;;;8.70;50.60;;;;;;4990801;28;20641;-77
2022/01/08 13:24:11;;;;;;;3.17;1.55;;;8.90;48.90;;;;;;4972899;28;20205;-77
2022/01/08 13:26:43;;;;;;;2.80;1.23;;;9.20;47.90;;;;;;4974803;28;20648;-76
2022/01/08 13:29:22;;;;;;;1.85;1.10;;;9.40;47.70;;;;;;4975049;28;20674;-82
2022/01/08 13:31:53;;;;;;;20.20;11.95;;;9.50;47.30;;;;;;4973322;28;20220;-76
2022/01/08 13:34:21;;;;;;;5.93;4.13;;;9.60;46.50;;;;;;4980224;28;20198;-77
2022/01/08 13:36:58;;;;;;;3.38;2.03;;;9.40;45.70;;;;;;4976333;28;20200;-77
2022/01/08 13:39:28;;;;;;;7.10;3.40;;;9.40;46.00;;;;;;4978337;28;20276;-77